sensor_id;sensor_type;location;lat;lon;timestamp;P1;durP1;ratioP1;P2;durP2;ratioP2
42096;SDS011;27754;45.414;11.084;2023-12-29T00:00:06;59.05;;;33.45;;
42096;SDS011;27754;45.414;11.084;2023-12-29T00:02:35;50.92;;;32.92;;
42096;SDS011;27754;45.414;11.084;2023-12-29T00:05:02;49.80;;;32.78;;
42096;SDS011;27754;45.414;11.084;2023-12-29T00:07:30;44.03;;;32.42;;
42096;SDS011;27754;45.414;11.084;2023-12-29T00:09:57;45.95;;;33.28;;
42096;SDS011;27754;45.414;11.084;2023-12-29T00:12:24;47.38;;;32.33;;
42096;SDS011;27754;45.414;11.084;2023-12-29T00:14:51;46.38;;;32.65;;
42096;SDS011;27754;45.414;11.084;2023-12-29T00:17:18;47.70;;;31.75;;
42096;SDS011;27754;45.414;11.084;2023-12-29T00:19:45;46.83;;;32.42;;
42096;SDS011;27754;45.414;11.084;2023-12-29T00:22:12;46.33;;;31.45;;
42096;SDS011;27754;45.414;11.084;2023-12-29T00:24:39;47.67;;;30.48;;
42096;SDS011;27754;45.414;11.084;2023-12-29T00:27:07;45.13;;;31.73;;
42096;SDS011;27754;45.414;11.084;2023-12-29T00:29:34;45.03;;;32.88;;
42096;SDS011;27754;45.414;11.084;2023-12-29T00:32:01;42.45;;;31.63;;
42096;SDS011;27754;45.414;11.084;2023-12-29T00:34:30;51.47;;;33.22;;
42096;SDS011;27754;45.414;11.084;2023-12-29T00:36:59;47.72;;;32.40;;
42096;SDS011;27754;45.414;11.084;2023-12-29T00:39:27;46.13;;;31.85;;
42096;SDS011;27754;45.414;11.084;2023-12-29T00:41:58;56.50;;;33.53;;
42096;SDS011;27754;45.414;11.084;2023-12-29T00:44:25;44.17;;;32.75;;
42096;SDS011;27754;45.414;11.084;2023-12-29T00:46:52;45.97;;;32.72;;
42096;SDS011;27754;45.414;11.084;2023-12-29T00:49:20;45.95;;;32.30;;
42096;SDS011;27754;45.414;11.084;2023-12-29T00:51:47;46.92;;;32.58;;
42096;SDS011;27754;45.414;11.084;2023-12-29T00:54:15;47.72;;;33.20;;
42096;SDS011;27754;45.414;11.084;2023-12-29T00:56:48;47.60;;;32.80;;
42096;SDS011;27754;45.414;11.084;2023-12-29T00:59:17;46.13;;;31.27;;
42096;SDS011;27754;45.414;11.084;2023-12-29T01:01:45;48.55;;;32.58;;
42096;SDS011;27754;45.414;11.084;2023-12-29T01:04:12;43.53;;;30.50;;
42096;SDS011;27754;45.414;11.084;2023-12-29T01:06:40;48.53;;;33.05;;
42096;SDS011;27754;45.414;11.084;2023-12-29T01:09:07;50.13;;;34.50;;
42096;SDS011;27754;45.414;11.084;2023-12-29T01:11:38;47.00;;;33.42;;
42096;SDS011;27754;45.414;11.084;2023-12-29T01:14:06;43.70;;;31.15;;
42096;SDS011;27754;45.414;11.084;2023-12-29T01:16:33;50.05;;;32.83;;
42096;SDS011;27754;45.414;11.084;2023-12-29T01:19:00;48.90;;;32.38;;
42096;SDS011;27754;45.414;11.084;2023-12-29T01:21:28;49.85;;;32.45;;
42096;SDS011;27754;45.414;11.084;2023-12-29T01:24:00;51.28;;;33.05;;
42096;SDS011;27754;45.414;11.084;2023-12-29T01:26:30;50.90;;;32.78;;
42096;SDS011;27754;45.414;11.084;2023-12-29T01:28:57;47.75;;;33.35;;
42096;SDS011;27754;45.414;11.084;2023-12-29T01:31:28;49.65;;;33.50;;
42096;SDS011;27754;45.414;11.084;2023-12-29T01:33:57;50.17;;;33.00;;
42096;SDS011;27754;45.414;11.084;2023-12-29T01:36:24;45.95;;;33.90;;
42096;SDS011;27754;45.414;11.084;2023-12-29T01:38:51;48.40;;;33.78;;
42096;SDS011;27754;45.414;11.084;2023-12-29T01:41:19;51.80;;;32.97;;
42096;SDS011;27754;45.414;11.084;2023-12-29T01:44:30;51.95;;;34.42;;
42096;SDS011;27754;45.414;11.084;2023-12-29T01:46:46;51.95;;;34.28;;
42096;SDS011;27754;45.414;11.084;2023-12-29T01:49:17;52.80;;;34.67;;
42096;SDS011;27754;45.414;11.084;2023-12-29T01:51:48;45.92;;;32.80;;
42096;SDS011;27754;45.414;11.084;2023-12-29T01:54:17;49.25;;;34.70;;
42096;SDS011;27754;45.414;11.084;2023-12-29T01:56:46;48.95;;;32.80;;
42096;SDS011;27754;45.414;11.084;2023-12-29T01:59:16;46.13;;;32.13;;
42096;SDS011;27754;45.414;11.084;2023-12-29T02:01:53;46.03;;;32.13;;
42096;SDS011;27754;45.414;11.084;2023-12-29T02:04:24;49.05;;;34.20;;
42096;SDS011;27754;45.414;11.084;2023-12-29T02:06:52;45.13;;;30.70;;
42096;SDS011;27754;45.414;11.084;2023-12-29T02:09:20;47.60;;;32.67;;
42096;SDS011;27754;45.414;11.084;2023-12-29T02:11:49;46.10;;;33.88;;
42096;SDS011;27754;45.414;11.084;2023-12-29T02:14:16;50.78;;;33.85;;
42096;SDS011;27754;45.414;11.084;2023-12-29T02:19:38;46.03;;;33.22;;
42096;SDS011;27754;45.414;11.084;2023-12-29T02:22:11;46.33;;;33.95;;
42096;SDS011;27754;45.414;11.084;2023-12-29T02:24:39;48.88;;;32.40;;
42096;SDS011;27754;45.414;11.084;2023-12-29T02:27:39;51.55;;;33.70;;
42096;SDS011;27754;45.414;11.084;2023-12-29T02:32:59;48.60;;;33.95;;
42096;SDS011;27754;45.414;11.084;2023-12-29T02:35:32;53.00;;;34.40;;
42096;SDS011;27754;45.414;11.084;2023-12-29T02:38:04;47.70;;;32.63;;
42096;SDS011;27754;45.414;11.084;2023-12-29T02:40:31;47.63;;;32.90;;
42096;SDS011;27754;45.414;11.084;2023-12-29T02:42:59;57.92;;;36.17;;
42096;SDS011;27754;45.414;11.084;2023-12-29T02:45:26;55.17;;;36.90;;
42096;SDS011;27754;45.414;11.084;2023-12-29T02:47:54;51.75;;;36.50;;
42096;SDS011;27754;45.414;11.084;2023-12-29T02:50:21;52.85;;;34.72;;
42096;SDS011;27754;45.414;11.084;2023-12-29T02:52:48;51.13;;;34.42;;
42096;SDS011;27754;45.414;11.084;2023-12-29T02:55:15;50.55;;;35.03;;
42096;SDS011;27754;45.414;11.084;2023-12-29T02:57:42;50.70;;;35.65;;
42096;SDS011;27754;45.414;11.084;2023-12-29T03:00:09;57.47;;;37.35;;
42096;SDS011;27754;45.414;11.084;2023-12-29T03:02:37;55.25;;;36.53;;
42096;SDS011;27754;45.414;11.084;2023-12-29T03:05:04;53.25;;;37.63;;
42096;SDS011;27754;45.414;11.084;2023-12-29T03:07:32;52.42;;;35.28;;
42096;SDS011;27754;45.414;11.084;2023-12-29T03:09:59;48.15;;;34.60;;
42096;SDS011;27754;45.414;11.084;2023-12-29T03:12:26;54.47;;;35.15;;
42096;SDS011;27754;45.414;11.084;2023-12-29T03:14:53;63.28;;;37.65;;
42096;SDS011;27754;45.414;11.084;2023-12-29T03:17:20;52.33;;;35.97;;
42096;SDS011;27754;45.414;11.084;2023-12-29T03:19:47;58.70;;;36.38;;
42096;SDS011;27754;45.414;11.084;2023-12-29T03:22:14;54.05;;;35.15;;
42096;SDS011;27754;45.414;11.084;2023-12-29T03:24:41;58.22;;;37.90;;
42096;SDS011;27754;45.414;11.084;2023-12-29T03:27:09;54.40;;;36.65;;
42096;SDS011;27754;45.414;11.084;2023-12-29T03:29:36;51.17;;;35.25;;
42096;SDS011;27754;45.414;11.084;2023-12-29T03:32:03;53.85;;;36.17;;
42096;SDS011;27754;45.414;11.084;2023-12-29T03:34:31;58.75;;;35.70;;
42096;SDS011;27754;45.414;11.084;2023-12-29T03:36:58;52.80;;;37.85;;
42096;SDS011;27754;45.414;11.084;2023-12-29T03:39:25;53.78;;;37.75;;
42096;SDS011;27754;45.414;11.084;2023-12-29T03:41:52;53.25;;;35.70;;
42096;SDS011;27754;45.414;11.084;2023-12-29T03:44:19;53.40;;;35.83;;
42096;SDS011;27754;45.414;11.084;2023-12-29T03:46:47;57.30;;;37.10;;
42096;SDS011;27754;45.414;11.084;2023-12-29T03:49:16;51.90;;;35.30;;
42096;SDS011;27754;45.414;11.084;2023-12-29T03:51:43;57.78;;;37.05;;
42096;SDS011;27754;45.414;11.084;2023-12-29T03:54:10;52.58;;;35.70;;
42096;SDS011;27754;45.414;11.084;2023-12-29T03:56:37;57.72;;;35.88;;
42096;SDS011;27754;45.414;11.084;2023-12-29T03:59:04;51.85;;;34.88;;
42096;SDS011;27754;45.414;11.084;2023-12-29T04:01:33;55.63;;;35.47;;
42096;SDS011;27754;45.414;11.084;2023-12-29T04:04:00;54.05;;;37.95;;
42096;SDS011;27754;45.414;11.084;2023-12-29T04:06:27;56.78;;;36.63;;
42096;SDS011;27754;45.414;11.084;2023-12-29T04:08:55;54.85;;;36.42;;
42096;SDS011;27754;45.414;11.084;2023-12-29T04:11:22;57.72;;;37.75;;
42096;SDS011;27754;45.414;11.084;2023-12-29T04:13:49;57.38;;;36.42;;
42096;SDS011;27754;45.414;11.084;2023-12-29T04:16:16;60.38;;;37.28;;
42096;SDS011;27754;45.414;11.084;2023-12-29T04:18:44;61.60;;;36.92;;
42096;SDS011;27754;45.414;11.084;2023-12-29T04:21:14;51.33;;;36.15;;
42096;SDS011;27754;45.414;11.084;2023-12-29T04:23:42;57.78;;;35.78;;
42096;SDS011;27754;45.414;11.084;2023-12-29T04:26:09;55.33;;;37.47;;
42096;SDS011;27754;45.414;11.084;2023-12-29T04:28:36;56.80;;;35.92;;
42096;SDS011;27754;45.414;11.084;2023-12-29T04:31:03;53.80;;;37.63;;
42096;SDS011;27754;45.414;11.084;2023-12-29T04:33:30;56.03;;;35.83;;
42096;SDS011;27754;45.414;11.084;2023-12-29T04:35:57;50.55;;;36.42;;
42096;SDS011;27754;45.414;11.084;2023-12-29T04:38:24;59.42;;;37.25;;
42096;SDS011;27754;45.414;11.084;2023-12-29T04:40:51;51.70;;;35.45;;
42096;SDS011;27754;45.414;11.084;2023-12-29T04:43:18;55.58;;;35.65;;
42096;SDS011;27754;45.414;11.084;2023-12-29T04:45:45;58.05;;;36.88;;
42096;SDS011;27754;45.414;11.084;2023-12-29T04:48:12;53.53;;;35.92;;
42096;SDS011;27754;45.414;11.084;2023-12-29T04:50:39;51.45;;;34.92;;
42096;SDS011;27754;45.414;11.084;2023-12-29T04:53:06;54.50;;;34.70;;
42096;SDS011;27754;45.414;11.084;2023-12-29T04:55:33;52.97;;;35.53;;
42096;SDS011;27754;45.414;11.084;2023-12-29T04:58:00;54.10;;;35.67;;
42096;SDS011;27754;45.414;11.084;2023-12-29T05:00:27;51.67;;;34.67;;
42096;SDS011;27754;45.414;11.084;2023-12-29T05:02:54;55.15;;;35.53;;
42096;SDS011;27754;45.414;11.084;2023-12-29T05:05:21;54.95;;;35.58;;
42096;SDS011;27754;45.414;11.084;2023-12-29T05:07:48;56.72;;;36.90;;
42096;SDS011;27754;45.414;11.084;2023-12-29T05:10:15;52.20;;;35.67;;
42096;SDS011;27754;45.414;11.084;2023-12-29T05:12:42;49.33;;;35.28;;
42096;SDS011;27754;45.414;11.084;2023-12-29T05:15:09;65.38;;;41.25;;
42096;SDS011;27754;45.414;11.084;2023-12-29T05:17:36;59.95;;;39.45;;
42096;SDS011;27754;45.414;11.084;2023-12-29T05:20:06;64.82;;;40.45;;
42096;SDS011;27754;45.414;11.084;2023-12-29T05:22:34;63.80;;;41.38;;
42096;SDS011;27754;45.414;11.084;2023-12-29T05:25:01;65.97;;;42.65;;
42096;SDS011;27754;45.414;11.084;2023-12-29T05:27:28;64.32;;;40.85;;
42096;SDS011;27754;45.414;11.084;2023-12-29T05:29:55;55.95;;;38.28;;
42096;SDS011;27754;45.414;11.084;2023-12-29T05:32:22;60.97;;;37.75;;
42096;SDS011;27754;45.414;11.084;2023-12-29T05:34:49;61.78;;;40.15;;
42096;SDS011;27754;45.414;11.084;2023-12-29T05:37:16;61.13;;;39.60;;
42096;SDS011;27754;45.414;11.084;2023-12-29T05:39:44;59.58;;;39.45;;
42096;SDS011;27754;45.414;11.084;2023-12-29T05:42:11;56.25;;;39.15;;
42096;SDS011;27754;45.414;11.084;2023-12-29T05:44:38;57.78;;;38.35;;
42096;SDS011;27754;45.414;11.084;2023-12-29T05:47:05;57.28;;;40.38;;
42096;SDS011;27754;45.414;11.084;2023-12-29T05:49:32;60.80;;;38.90;;
42096;SDS011;27754;45.414;11.084;2023-12-29T05:52:06;58.55;;;38.88;;
42096;SDS011;27754;45.414;11.084;2023-12-29T05:54:34;56.83;;;39.25;;
42096;SDS011;27754;45.414;11.084;2023-12-29T05:57:01;64.53;;;41.15;;
42096;SDS011;27754;45.414;11.084;2023-12-29T05:59:28;58.03;;;38.95;;
42096;SDS011;27754;45.414;11.084;2023-12-29T06:01:55;67.50;;;40.13;;
42096;SDS011;27754;45.414;11.084;2023-12-29T06:04:23;65.85;;;40.45;;
42096;SDS011;27754;45.414;11.084;2023-12-29T06:06:50;60.88;;;38.55;;
42096;SDS011;27754;45.414;11.084;2023-12-29T06:09:17;60.63;;;39.83;;
42096;SDS011;27754;45.414;11.084;2023-12-29T06:11:44;59.88;;;38.85;;
42096;SDS011;27754;45.414;11.084;2023-12-29T06:14:11;57.92;;;39.58;;
42096;SDS011;27754;45.414;11.084;2023-12-29T06:16:38;55.67;;;37.78;;
42096;SDS011;27754;45.414;11.084;2023-12-29T06:19:05;58.33;;;38.35;;
42096;SDS011;27754;45.414;11.084;2023-12-29T06:21:32;61.97;;;38.42;;
42096;SDS011;27754;45.414;11.084;2023-12-29T06:23:59;59.83;;;38.85;;
42096;SDS011;27754;45.414;11.084;2023-12-29T06:26:26;57.25;;;37.67;;
42096;SDS011;27754;45.414;11.084;2023-12-29T06:28:53;59.30;;;39.25;;
42096;SDS011;27754;45.414;11.084;2023-12-29T06:31:20;63.75;;;39.80;;
42096;SDS011;27754;45.414;11.084;2023-12-29T06:33:47;62.55;;;39.45;;
42096;SDS011;27754;45.414;11.084;2023-12-29T06:36:14;58.60;;;39.53;;
42096;SDS011;27754;45.414;11.084;2023-12-29T06:38:42;58.85;;;39.90;;
42096;SDS011;27754;45.414;11.084;2023-12-29T06:41:12;65.97;;;40.22;;
42096;SDS011;27754;45.414;11.084;2023-12-29T06:43:40;61.17;;;38.55;;
42096;SDS011;27754;45.414;11.084;2023-12-29T06:46:07;60.92;;;38.92;;
42096;SDS011;27754;45.414;11.084;2023-12-29T06:48:36;58.15;;;39.35;;
42096;SDS011;27754;45.414;11.084;2023-12-29T06:51:03;58.25;;;39.25;;
42096;SDS011;27754;45.414;11.084;2023-12-29T06:53:30;65.15;;;40.08;;
42096;SDS011;27754;45.414;11.084;2023-12-29T06:55:57;66.45;;;37.60;;
42096;SDS011;27754;45.414;11.084;2023-12-29T06:58:24;58.28;;;38.15;;
42096;SDS011;27754;45.414;11.084;2023-12-29T07:00:51;63.95;;;39.47;;
42096;SDS011;27754;45.414;11.084;2023-12-29T07:03:18;59.55;;;38.97;;
42096;SDS011;27754;45.414;11.084;2023-12-29T07:05:45;64.10;;;39.10;;
42096;SDS011;27754;45.414;11.084;2023-12-29T07:08:12;61.80;;;39.33;;
42096;SDS011;27754;45.414;11.084;2023-12-29T07:10:40;64.97;;;39.22;;
42096;SDS011;27754;45.414;11.084;2023-12-29T07:13:08;59.28;;;39.88;;
42096;SDS011;27754;45.414;11.084;2023-12-29T07:15:35;58.55;;;39.33;;
42096;SDS011;27754;45.414;11.084;2023-12-29T07:18:02;58.67;;;39.63;;
42096;SDS011;27754;45.414;11.084;2023-12-29T07:20:30;69.57;;;41.22;;
42096;SDS011;27754;45.414;11.084;2023-12-29T07:22:57;69.15;;;42.55;;
42096;SDS011;27754;45.414;11.084;2023-12-29T07:25:24;65.57;;;40.10;;
42096;SDS011;27754;45.414;11.084;2023-12-29T07:27:51;67.07;;;43.85;;
42096;SDS011;27754;45.414;11.084;2023-12-29T07:30:19;73.03;;;44.35;;
42096;SDS011;27754;45.414;11.084;2023-12-29T07:32:46;65.22;;;43.17;;
42096;SDS011;27754;45.414;11.084;2023-12-29T07:35:13;65.47;;;42.72;;
42096;SDS011;27754;45.414;11.084;2023-12-29T07:37:44;66.60;;;43.55;;
42096;SDS011;27754;45.414;11.084;2023-12-29T07:40:11;70.97;;;45.83;;
42096;SDS011;27754;45.414;11.084;2023-12-29T07:42:39;70.20;;;43.38;;
42096;SDS011;27754;45.414;11.084;2023-12-29T07:45:07;67.68;;;45.22;;
42096;SDS011;27754;45.414;11.084;2023-12-29T07:47:35;70.95;;;44.80;;
42096;SDS011;27754;45.414;11.084;2023-12-29T07:50:02;77.30;;;46.25;;
42096;SDS011;27754;45.414;11.084;2023-12-29T07:52:30;70.20;;;46.15;;
42096;SDS011;27754;45.414;11.084;2023-12-29T07:54:57;71.55;;;44.28;;
42096;SDS011;27754;45.414;11.084;2023-12-29T07:57:25;71.30;;;46.15;;
42096;SDS011;27754;45.414;11.084;2023-12-29T07:59:52;71.47;;;45.13;;
42096;SDS011;27754;45.414;11.084;2023-12-29T08:02:19;70.07;;;46.13;;
42096;SDS011;27754;45.414;11.084;2023-12-29T08:04:46;70.60;;;46.53;;
42096;SDS011;27754;45.414;11.084;2023-12-29T08:07:15;70.72;;;45.45;;
42096;SDS011;27754;45.414;11.084;2023-12-29T08:09:42;70.80;;;46.80;;
42096;SDS011;27754;45.414;11.084;2023-12-29T08:12:10;80.40;;;47.47;;
42096;SDS011;27754;45.414;11.084;2023-12-29T08:14:37;73.68;;;46.88;;
42096;SDS011;27754;45.414;11.084;2023-12-29T08:17:04;76.90;;;47.88;;
42096;SDS011;27754;45.414;11.084;2023-12-29T08:19:32;64.93;;;44.40;;
42096;SDS011;27754;45.414;11.084;2023-12-29T08:22:00;66.05;;;44.85;;
42096;SDS011;27754;45.414;11.084;2023-12-29T08:24:27;66.00;;;43.78;;
42096;SDS011;27754;45.414;11.084;2023-12-29T08:26:54;62.85;;;41.38;;
42096;SDS011;27754;45.414;11.084;2023-12-29T08:29:20;63.55;;;43.03;;
42096;SDS011;27754;45.414;11.084;2023-12-29T08:31:48;68.60;;;47.15;;
42096;SDS011;27754;45.414;11.084;2023-12-29T08:34:15;71.45;;;46.50;;
42096;SDS011;27754;45.414;11.084;2023-12-29T08:36:43;66.55;;;44.58;;
42096;SDS011;27754;45.414;11.084;2023-12-29T08:39:11;68.28;;;43.92;;
42096;SDS011;27754;45.414;11.084;2023-12-29T08:41:38;71.90;;;45.38;;
42096;SDS011;27754;45.414;11.084;2023-12-29T08:44:05;68.97;;;44.85;;
42096;SDS011;27754;45.414;11.084;2023-12-29T08:46:32;66.93;;;46.72;;
42096;SDS011;27754;45.414;11.084;2023-12-29T08:48:59;71.15;;;46.15;;
42096;SDS011;27754;45.414;11.084;2023-12-29T08:51:27;71.03;;;44.38;;
42096;SDS011;27754;45.414;11.084;2023-12-29T08:53:55;67.65;;;46.00;;
42096;SDS011;27754;45.414;11.084;2023-12-29T08:56:22;69.95;;;45.40;;
42096;SDS011;27754;45.414;11.084;2023-12-29T08:58:52;65.88;;;43.20;;
42096;SDS011;27754;45.414;11.084;2023-12-29T09:01:19;59.30;;;41.42;;
42096;SDS011;27754;45.414;11.084;2023-12-29T09:03:46;71.18;;;42.92;;
42096;SDS011;27754;45.414;11.084;2023-12-29T09:06:13;64.70;;;41.42;;
42096;SDS011;27754;45.414;11.084;2023-12-29T09:08:40;58.20;;;38.92;;
42096;SDS011;27754;45.414;11.084;2023-12-29T09:11:07;58.92;;;42.08;;
42096;SDS011;27754;45.414;11.084;2023-12-29T09:13:34;66.65;;;43.13;;
42096;SDS011;27754;45.414;11.084;2023-12-29T09:16:01;68.53;;;43.80;;
42096;SDS011;27754;45.414;11.084;2023-12-29T09:18:28;59.65;;;42.45;;
42096;SDS011;27754;45.414;11.084;2023-12-29T09:20:57;62.25;;;40.67;;
42096;SDS011;27754;45.414;11.084;2023-12-29T09:23:24;66.82;;;41.33;;
42096;SDS011;27754;45.414;11.084;2023-12-29T09:25:51;66.47;;;42.35;;
42096;SDS011;27754;45.414;11.084;2023-12-29T09:28:19;61.92;;;39.97;;
42096;SDS011;27754;45.414;11.084;2023-12-29T09:30:46;59.55;;;39.85;;
42096;SDS011;27754;45.414;11.084;2023-12-29T09:33:13;57.35;;;40.10;;
42096;SDS011;27754;45.414;11.084;2023-12-29T09:35:41;59.42;;;39.58;;
42096;SDS011;27754;45.414;11.084;2023-12-29T09:38:08;58.50;;;38.90;;
42096;SDS011;27754;45.414;11.084;2023-12-29T09:40:36;60.88;;;38.85;;
42096;SDS011;27754;45.414;11.084;2023-12-29T09:43:03;58.85;;;37.28;;
42096;SDS011;27754;45.414;11.084;2023-12-29T09:45:31;62.97;;;38.60;;
42096;SDS011;27754;45.414;11.084;2023-12-29T09:48:01;56.92;;;37.53;;
42096;SDS011;27754;45.414;11.084;2023-12-29T09:50:30;54.53;;;37.35;;
42096;SDS011;27754;45.414;11.084;2023-12-29T09:52:59;52.90;;;37.72;;
42096;SDS011;27754;45.414;11.084;2023-12-29T09:55:28;57.63;;;39.28;;
42096;SDS011;27754;45.414;11.084;2023-12-29T09:57:55;60.33;;;39.10;;
42096;SDS011;27754;45.414;11.084;2023-12-29T10:00:26;60.13;;;38.63;;
42096;SDS011;27754;45.414;11.084;2023-12-29T10:02:53;65.40;;;41.63;;
42096;SDS011;27754;45.414;11.084;2023-12-29T10:05:20;62.97;;;41.50;;
42096;SDS011;27754;45.414;11.084;2023-12-29T10:07:48;63.78;;;41.78;;
42096;SDS011;27754;45.414;11.084;2023-12-29T10:10:17;62.13;;;40.47;;
42096;SDS011;27754;45.414;11.084;2023-12-29T10:12:47;64.20;;;41.38;;
42096;SDS011;27754;45.414;11.084;2023-12-29T10:15:21;53.58;;;37.17;;
42096;SDS011;27754;45.414;11.084;2023-12-29T10:23:26;54.85;;;37.63;;
42096;SDS011;27754;45.414;11.084;2023-12-29T10:25:57;51.40;;;34.63;;
42096;SDS011;27754;45.414;11.084;2023-12-29T10:28:24;47.85;;;33.97;;
42096;SDS011;27754;45.414;11.084;2023-12-29T10:30:51;50.78;;;33.90;;
42096;SDS011;27754;45.414;11.084;2023-12-29T10:33:19;62.45;;;35.38;;
42096;SDS011;27754;45.414;11.084;2023-12-29T10:35:57;47.03;;;32.63;;
42096;SDS011;27754;45.414;11.084;2023-12-29T10:38:30;49.15;;;33.90;;
42096;SDS011;27754;45.414;11.084;2023-12-29T10:41:10;53.95;;;34.03;;
42096;SDS011;27754;45.414;11.084;2023-12-29T10:43:41;50.90;;;34.25;;
42096;SDS011;27754;45.414;11.084;2023-12-29T10:46:10;53.35;;;34.90;;
42096;SDS011;27754;45.414;11.084;2023-12-29T10:48:38;48.38;;;32.00;;
42096;SDS011;27754;45.414;11.084;2023-12-29T10:51:06;50.35;;;31.98;;
42096;SDS011;27754;45.414;11.084;2023-12-29T10:53:34;45.38;;;31.70;;
42096;SDS011;27754;45.414;11.084;2023-12-29T10:56:16;50.80;;;31.42;;
42096;SDS011;27754;45.414;11.084;2023-12-29T10:59:02;45.72;;;31.15;;
42096;SDS011;27754;45.414;11.084;2023-12-29T11:01:31;47.00;;;32.53;;
42096;SDS011;27754;45.414;11.084;2023-12-29T11:04:04;51.70;;;32.95;;
42096;SDS011;27754;45.414;11.084;2023-12-29T11:06:42;47.05;;;31.38;;
42096;SDS011;27754;45.414;11.084;2023-12-29T11:09:13;47.72;;;32.83;;
42096;SDS011;27754;45.414;11.084;2023-12-29T11:11:40;50.55;;;33.47;;
42096;SDS011;27754;45.414;11.084;2023-12-29T11:14:09;49.63;;;33.40;;
42096;SDS011;27754;45.414;11.084;2023-12-29T11:16:37;47.53;;;32.97;;
42096;SDS011;27754;45.414;11.084;2023-12-29T11:19:05;53.58;;;33.88;;
42096;SDS011;27754;45.414;11.084;2023-12-29T11:21:37;49.90;;;32.42;;
42096;SDS011;27754;45.414;11.084;2023-12-29T11:24:06;64.85;;;48.38;;
42096;SDS011;27754;45.414;11.084;2023-12-29T11:26:33;56.17;;;39.00;;
42096;SDS011;27754;45.414;11.084;2023-12-29T11:29:01;59.05;;;41.17;;
42096;SDS011;27754;45.414;11.084;2023-12-29T11:31:31;58.33;;;39.08;;
42096;SDS011;27754;45.414;11.084;2023-12-29T11:34:04;61.13;;;42.33;;
42096;SDS011;27754;45.414;11.084;2023-12-29T11:36:38;54.97;;;38.83;;
42096;SDS011;27754;45.414;11.084;2023-12-29T11:42:23;53.33;;;36.28;;
42096;SDS011;27754;45.414;11.084;2023-12-29T11:44:57;50.83;;;35.92;;
42096;SDS011;27754;45.414;11.084;2023-12-29T11:47:34;49.00;;;36.33;;
42096;SDS011;27754;45.414;11.084;2023-12-29T11:50:03;52.97;;;35.65;;
42096;SDS011;27754;45.414;11.084;2023-12-29T11:55:14;43.58;;;29.73;;
42096;SDS011;27754;45.414;11.084;2023-12-29T11:57:41;41.58;;;28.35;;
42096;SDS011;27754;45.414;11.084;2023-12-29T12:00:09;41.17;;;27.88;;
42096;SDS011;27754;45.414;11.084;2023-12-29T12:02:37;46.95;;;30.38;;
42096;SDS011;27754;45.414;11.084;2023-12-29T12:05:05;43.95;;;29.50;;
42096;SDS011;27754;45.414;11.084;2023-12-29T12:12:57;51.08;;;31.50;;
42096;SDS011;27754;45.414;11.084;2023-12-29T12:15:31;57.60;;;32.97;;
42096;SDS011;27754;45.414;11.084;2023-12-29T12:17:59;47.80;;;31.35;;
42096;SDS011;27754;45.414;11.084;2023-12-29T12:20:33;45.70;;;32.03;;
42096;SDS011;27754;45.414;11.084;2023-12-29T12:25:46;47.92;;;30.60;;
42096;SDS011;27754;45.414;11.084;2023-12-29T12:28:16;44.78;;;30.45;;
42096;SDS011;27754;45.414;11.084;2023-12-29T12:30:43;46.72;;;30.17;;
42096;SDS011;27754;45.414;11.084;2023-12-29T12:33:11;42.30;;;29.45;;
42096;SDS011;27754;45.414;11.084;2023-12-29T12:35:40;46.40;;;29.58;;
42096;SDS011;27754;45.414;11.084;2023-12-29T12:38:14;46.08;;;30.65;;
42096;SDS011;27754;45.414;11.084;2023-12-29T12:40:48;49.22;;;30.67;;
42096;SDS011;27754;45.414;11.084;2023-12-29T12:43:15;43.78;;;29.25;;
42096;SDS011;27754;45.414;11.084;2023-12-29T12:45:47;45.92;;;30.25;;
42096;SDS011;27754;45.414;11.084;2023-12-29T12:51:12;43.53;;;29.02;;
42096;SDS011;27754;45.414;11.084;2023-12-29T12:53:43;44.55;;;26.98;;
42096;SDS011;27754;45.414;11.084;2023-12-29T12:56:11;40.88;;;27.05;;
42096;SDS011;27754;45.414;11.084;2023-12-29T12:58:38;38.67;;;26.17;;
42096;SDS011;27754;45.414;11.084;2023-12-29T13:01:05;38.78;;;25.55;;
42096;SDS011;27754;45.414;11.084;2023-12-29T13:03:33;44.55;;;27.15;;
42096;SDS011;27754;45.414;11.084;2023-12-29T13:06:03;40.30;;;27.05;;
42096;SDS011;27754;45.414;11.084;2023-12-29T13:08:31;42.47;;;29.20;;
42096;SDS011;27754;45.414;11.084;2023-12-29T13:11:05;43.72;;;29.13;;
42096;SDS011;27754;45.414;11.084;2023-12-29T13:13:39;46.92;;;30.20;;
42096;SDS011;27754;45.414;11.084;2023-12-29T13:16:09;43.63;;;28.25;;
42096;SDS011;27754;45.414;11.084;2023-12-29T13:18:36;43.25;;;28.40;;
42096;SDS011;27754;45.414;11.084;2023-12-29T13:21:03;43.00;;;28.52;;
42096;SDS011;27754;45.414;11.084;2023-12-29T13:23:31;44.78;;;30.33;;
42096;SDS011;27754;45.414;11.084;2023-12-29T13:26:03;41.03;;;28.70;;
42096;SDS011;27754;45.414;11.084;2023-12-29T13:28:34;39.70;;;28.70;;
42096;SDS011;27754;45.414;11.084;2023-12-29T13:31:05;42.17;;;29.10;;
42096;SDS011;27754;45.414;11.084;2023-12-29T13:39:03;41.83;;;28.63;;
42096;SDS011;27754;45.414;11.084;2023-12-29T13:41:48;46.03;;;30.48;;
42096;SDS011;27754;45.414;11.084;2023-12-29T13:44:15;45.78;;;27.83;;
42096;SDS011;27754;45.414;11.084;2023-12-29T13:46:47;44.85;;;28.90;;
42096;SDS011;27754;45.414;11.084;2023-12-29T13:49:16;46.78;;;30.33;;
42096;SDS011;27754;45.414;11.084;2023-12-29T13:51:44;42.13;;;28.95;;
42096;SDS011;27754;45.414;11.084;2023-12-29T13:54:11;39.60;;;29.27;;
42096;SDS011;27754;45.414;11.084;2023-12-29T13:56:50;44.35;;;28.38;;
42096;SDS011;27754;45.414;11.084;2023-12-29T13:59:32;42.10;;;27.08;;
42096;SDS011;27754;45.414;11.084;2023-12-29T14:01:59;40.55;;;27.50;;
42096;SDS011;27754;45.414;11.084;2023-12-29T14:04:41;40.53;;;26.80;;
42096;SDS011;27754;45.414;11.084;2023-12-29T14:07:09;41.63;;;27.92;;
42096;SDS011;27754;45.414;11.084;2023-12-29T14:09:36;41.10;;;27.75;;
42096;SDS011;27754;45.414;11.084;2023-12-29T14:12:09;48.63;;;29.60;;
42096;SDS011;27754;45.414;11.084;2023-12-29T14:14:36;46.13;;;29.85;;
42096;SDS011;27754;45.414;11.084;2023-12-29T14:17:03;41.78;;;28.85;;
42096;SDS011;27754;45.414;11.084;2023-12-29T14:19:34;46.30;;;30.48;;
42096;SDS011;27754;45.414;11.084;2023-12-29T14:22:03;43.35;;;30.15;;
42096;SDS011;27754;45.414;11.084;2023-12-29T14:24:30;41.85;;;27.92;;
42096;SDS011;27754;45.414;11.084;2023-12-29T14:26:57;43.58;;;28.08;;
42096;SDS011;27754;45.414;11.084;2023-12-29T14:29:26;41.47;;;26.88;;
42096;SDS011;27754;45.414;11.084;2023-12-29T14:31:53;40.15;;;27.52;;
42096;SDS011;27754;45.414;11.084;2023-12-29T14:34:22;41.95;;;28.02;;
42096;SDS011;27754;45.414;11.084;2023-12-29T14:36:50;42.85;;;28.33;;
42096;SDS011;27754;45.414;11.084;2023-12-29T14:39:17;45.70;;;29.25;;
42096;SDS011;27754;45.414;11.084;2023-12-29T14:41:44;43.08;;;28.55;;
42096;SDS011;27754;45.414;11.084;2023-12-29T14:44:12;42.78;;;29.42;;
42096;SDS011;27754;45.414;11.084;2023-12-29T14:46:39;41.42;;;29.48;;
42096;SDS011;27754;45.414;11.084;2023-12-29T14:49:06;42.15;;;28.45;;